sensor_id;sensor_type;location;lat;lon;timestamp;P1;durP1;ratioP1;P2;durP2;ratioP2
2408;SDS011;8463;48.094;7.970;2023-08-01T00:02:20;4.33;;;2.83;;
2408;SDS011;8463;48.094;7.970;2023-08-01T00:04:46;3.70;;;2.63;;
2408;SDS011;8463;48.094;7.970;2023-08-01T00:07:11;2.67;;;2.30;;
2408;SDS011;8463;48.094;7.970;2023-08-01T00:09:39;4.20;;;2.87;;
2408;SDS011;8463;48.094;7.970;2023-08-01T00:12:05;5.67;;;2.63;;
2408;SDS011;8463;48.094;7.970;2023-08-01T00:14:31;2.53;;;2.10;;
2408;SDS011;8463;48.094;7.970;2023-08-01T00:16:57;3.93;;;2.40;;
2408;SDS011;8463;48.094;7.970;2023-08-01T00:19:23;3.63;;;2.80;;
2408;SDS011;8463;48.094;7.970;2023-08-01T00:21:51;4.40;;;3.00;;
2408;SDS011;8463;48.094;7.970;2023-08-01T00:24:17;4.10;;;3.40;;
2408;SDS011;8463;48.094;7.970;2023-08-01T00:26:43;3.53;;;2.93;;
2408;SDS011;8463;48.094;7.970;2023-08-01T00:29:08;3.60;;;3.30;;
2408;SDS011;8463;48.094;7.970;2023-08-01T00:31:34;4.40;;;2.43;;
2408;SDS011;8463;48.094;7.970;2023-08-01T00:33:59;3.07;;;2.53;;
2408;SDS011;8463;48.094;7.970;2023-08-01T00:36:25;4.50;;;3.00;;
2408;SDS011;8463;48.094;7.970;2023-08-01T00:38:51;4.00;;;3.30;;
2408;SDS011;8463;48.094;7.970;2023-08-01T00:41:18;3.70;;;2.53;;
2408;SDS011;8463;48.094;7.970;2023-08-01T00:43:46;3.40;;;2.77;;
2408;SDS011;8463;48.094;7.970;2023-08-01T00:46:14;5.17;;;3.13;;
2408;SDS011;8463;48.094;7.970;2023-08-01T00:48:40;3.50;;;2.93;;
2408;SDS011;8463;48.094;7.970;2023-08-01T00:51:06;3.50;;;2.60;;
2408;SDS011;8463;48.094;7.970;2023-08-01T00:53:34;4.93;;;2.93;;
2408;SDS011;8463;48.094;7.970;2023-08-01T00:56:06;3.27;;;2.70;;
2408;SDS011;8463;48.094;7.970;2023-08-01T00:58:32;4.73;;;3.10;;
2408;SDS011;8463;48.094;7.970;2023-08-01T01:01:00;2.93;;;2.73;;
2408;SDS011;8463;48.094;7.970;2023-08-01T01:03:28;3.37;;;3.03;;
2408;SDS011;8463;48.094;7.970;2023-08-01T01:08:44;3.13;;;2.70;;
2408;SDS011;8463;48.094;7.970;2023-08-01T01:11:10;3.40;;;2.60;;
2408;SDS011;8463;48.094;7.970;2023-08-01T01:13:40;4.10;;;2.50;;
2408;SDS011;8463;48.094;7.970;2023-08-01T01:16:06;4.13;;;3.07;;
2408;SDS011;8463;48.094;7.970;2023-08-01T01:18:37;2.90;;;2.57;;
2408;SDS011;8463;48.094;7.970;2023-08-01T01:21:03;4.20;;;3.10;;
2408;SDS011;8463;48.094;7.970;2023-08-01T01:23:35;2.97;;;2.37;;
2408;SDS011;8463;48.094;7.970;2023-08-01T01:26:02;3.33;;;2.73;;
2408;SDS011;8463;48.094;7.970;2023-08-01T01:28:29;2.90;;;2.70;;
2408;SDS011;8463;48.094;7.970;2023-08-01T01:30:56;3.30;;;2.60;;
2408;SDS011;8463;48.094;7.970;2023-08-01T01:33:22;2.97;;;2.40;;
2408;SDS011;8463;48.094;7.970;2023-08-01T01:35:48;3.70;;;3.00;;
2408;SDS011;8463;48.094;7.970;2023-08-01T01:38:14;3.70;;;3.33;;
2408;SDS011;8463;48.094;7.970;2023-08-01T01:40:49;3.90;;;2.20;;
2408;SDS011;8463;48.094;7.970;2023-08-01T01:43:15;3.93;;;3.53;;
2408;SDS011;8463;48.094;7.970;2023-08-01T01:45:40;3.20;;;2.50;;
2408;SDS011;8463;48.094;7.970;2023-08-01T01:48:08;6.63;;;2.67;;
2408;SDS011;8463;48.094;7.970;2023-08-01T01:50:34;5.10;;;2.83;;
2408;SDS011;8463;48.094;7.970;2023-08-01T01:52:59;4.03;;;2.93;;
2408;SDS011;8463;48.094;7.970;2023-08-01T01:55:25;5.23;;;2.70;;
2408;SDS011;8463;48.094;7.970;2023-08-01T01:57:51;5.07;;;4.17;;
2408;SDS011;8463;48.094;7.970;2023-08-01T02:00:16;5.07;;;2.90;;
2408;SDS011;8463;48.094;7.970;2023-08-01T02:02:42;5.80;;;3.17;;
2408;SDS011;8463;48.094;7.970;2023-08-01T02:05:07;4.00;;;2.67;;
2408;SDS011;8463;48.094;7.970;2023-08-01T02:07:33;3.77;;;2.70;;
2408;SDS011;8463;48.094;7.970;2023-08-01T02:09:59;5.77;;;2.23;;
2408;SDS011;8463;48.094;7.970;2023-08-01T02:12:25;2.70;;;2.40;;
2408;SDS011;8463;48.094;7.970;2023-08-01T02:14:56;3.00;;;2.70;;
2408;SDS011;8463;48.094;7.970;2023-08-01T02:17:23;3.93;;;2.67;;
2408;SDS011;8463;48.094;7.970;2023-08-01T02:19:49;4.10;;;2.70;;
2408;SDS011;8463;48.094;7.970;2023-08-01T02:22:14;4.13;;;2.50;;
2408;SDS011;8463;48.094;7.970;2023-08-01T02:24:40;3.30;;;2.50;;
2408;SDS011;8463;48.094;7.970;2023-08-01T02:27:07;4.63;;;2.70;;
2408;SDS011;8463;48.094;7.970;2023-08-01T02:29:35;3.10;;;2.40;;
2408;SDS011;8463;48.094;7.970;2023-08-01T02:32:01;2.70;;;2.10;;
2408;SDS011;8463;48.094;7.970;2023-08-01T02:34:27;4.73;;;2.10;;
2408;SDS011;8463;48.094;7.970;2023-08-01T02:36:56;3.20;;;2.30;;
2408;SDS011;8463;48.094;7.970;2023-08-01T02:39:21;2.97;;;2.30;;
2408;SDS011;8463;48.094;7.970;2023-08-01T02:41:48;4.47;;;2.90;;
2408;SDS011;8463;48.094;7.970;2023-08-01T02:44:16;3.47;;;2.97;;
2408;SDS011;8463;48.094;7.970;2023-08-01T02:46:41;2.63;;;2.40;;
2408;SDS011;8463;48.094;7.970;2023-08-01T02:49:07;5.83;;;2.30;;
2408;SDS011;8463;48.094;7.970;2023-08-01T02:51:33;3.13;;;2.37;;
2408;SDS011;8463;48.094;7.970;2023-08-01T02:53:58;3.20;;;2.90;;
2408;SDS011;8463;48.094;7.970;2023-08-01T02:56:24;5.10;;;2.80;;
2408;SDS011;8463;48.094;7.970;2023-08-01T02:58:49;5.70;;;2.53;;
2408;SDS011;8463;48.094;7.970;2023-08-01T03:01:16;2.90;;;2.30;;
2408;SDS011;8463;48.094;7.970;2023-08-01T03:03:42;7.10;;;2.63;;
2408;SDS011;8463;48.094;7.970;2023-08-01T03:06:08;2.63;;;2.43;;
2408;SDS011;8463;48.094;7.970;2023-08-01T03:08:33;3.70;;;2.13;;
2408;SDS011;8463;48.094;7.970;2023-08-01T03:10:59;5.43;;;2.70;;
2408;SDS011;8463;48.094;7.970;2023-08-01T03:13:25;4.10;;;2.70;;
2408;SDS011;8463;48.094;7.970;2023-08-01T03:15:58;3.37;;;2.80;;
2408;SDS011;8463;48.094;7.970;2023-08-01T03:18:23;4.43;;;2.70;;
2408;SDS011;8463;48.094;7.970;2023-08-01T03:20:49;5.73;;;2.57;;
2408;SDS011;8463;48.094;7.970;2023-08-01T03:23:15;4.43;;;2.57;;
2408;SDS011;8463;48.094;7.970;2023-08-01T03:25:41;4.80;;;3.03;;
2408;SDS011;8463;48.094;7.970;2023-08-01T03:28:06;3.40;;;2.40;;
2408;SDS011;8463;48.094;7.970;2023-08-01T03:30:32;6.90;;;3.10;;
2408;SDS011;8463;48.094;7.970;2023-08-01T03:32:59;5.03;;;2.73;;
2408;SDS011;8463;48.094;7.970;2023-08-01T03:35:27;3.30;;;2.50;;
2408;SDS011;8463;48.094;7.970;2023-08-01T03:37:53;5.63;;;3.33;;
2408;SDS011;8463;48.094;7.970;2023-08-01T03:40:19;2.50;;;2.17;;
2408;SDS011;8463;48.094;7.970;2023-08-01T03:42:45;9.10;;;2.97;;
2408;SDS011;8463;48.094;7.970;2023-08-01T03:45:13;5.00;;;2.80;;
2408;SDS011;8463;48.094;7.970;2023-08-01T03:47:38;3.20;;;2.90;;
2408;SDS011;8463;48.094;7.970;2023-08-01T03:50:04;4.23;;;2.93;;
2408;SDS011;8463;48.094;7.970;2023-08-01T03:52:30;3.73;;;2.40;;
2408;SDS011;8463;48.094;7.970;2023-08-01T03:54:56;3.70;;;2.93;;
2408;SDS011;8463;48.094;7.970;2023-08-01T03:57:21;4.77;;;2.70;;
2408;SDS011;8463;48.094;7.970;2023-08-01T03:59:47;5.60;;;3.43;;
2408;SDS011;8463;48.094;7.970;2023-08-01T04:02:13;3.90;;;3.03;;
2408;SDS011;8463;48.094;7.970;2023-08-01T04:04:38;5.30;;;3.03;;
2408;SDS011;8463;48.094;7.970;2023-08-01T04:07:04;4.30;;;3.03;;
2408;SDS011;8463;48.094;7.970;2023-08-01T04:09:29;5.77;;;3.30;;
2408;SDS011;8463;48.094;7.970;2023-08-01T04:11:55;3.37;;;2.43;;
2408;SDS011;8463;48.094;7.970;2023-08-01T04:14:21;5.50;;;2.73;;
2408;SDS011;8463;48.094;7.970;2023-08-01T04:16:47;4.97;;;3.30;;
2408;SDS011;8463;48.094;7.970;2023-08-01T04:19:13;3.03;;;2.70;;
2408;SDS011;8463;48.094;7.970;2023-08-01T04:21:39;6.10;;;2.57;;
2408;SDS011;8463;48.094;7.970;2023-08-01T04:24:05;6.30;;;3.77;;
2408;SDS011;8463;48.094;7.970;2023-08-01T04:26:36;3.73;;;2.50;;
2408;SDS011;8463;48.094;7.970;2023-08-01T04:29:02;4.10;;;2.70;;
2408;SDS011;8463;48.094;7.970;2023-08-01T04:31:30;4.63;;;3.60;;
2408;SDS011;8463;48.094;7.970;2023-08-01T04:33:55;7.07;;;3.67;;
2408;SDS011;8463;48.094;7.970;2023-08-01T04:36:21;3.63;;;3.23;;
2408;SDS011;8463;48.094;7.970;2023-08-01T04:38:47;5.40;;;3.67;;
2408;SDS011;8463;48.094;7.970;2023-08-01T04:41:14;3.83;;;3.17;;
2408;SDS011;8463;48.094;7.970;2023-08-01T04:43:40;5.53;;;3.30;;
2408;SDS011;8463;48.094;7.970;2023-08-01T04:46:06;4.03;;;3.63;;
2408;SDS011;8463;48.094;7.970;2023-08-01T04:48:31;4.67;;;3.23;;
2408;SDS011;8463;48.094;7.970;2023-08-01T04:50:57;4.40;;;3.80;;
2408;SDS011;8463;48.094;7.970;2023-08-01T04:53:22;5.60;;;3.93;;
2408;SDS011;8463;48.094;7.970;2023-08-01T04:55:48;4.63;;;3.30;;
2408;SDS011;8463;48.094;7.970;2023-08-01T04:58:14;5.10;;;3.57;;
2408;SDS011;8463;48.094;7.970;2023-08-01T05:00:40;4.47;;;4.00;;
2408;SDS011;8463;48.094;7.970;2023-08-01T05:03:08;4.23;;;3.83;;
2408;SDS011;8463;48.094;7.970;2023-08-01T05:05:34;6.00;;;3.50;;
2408;SDS011;8463;48.094;7.970;2023-08-01T05:08:02;4.40;;;3.90;;
2408;SDS011;8463;48.094;7.970;2023-08-01T05:10:30;4.77;;;3.17;;
2408;SDS011;8463;48.094;7.970;2023-08-01T05:12:55;5.73;;;3.43;;
2408;SDS011;8463;48.094;7.970;2023-08-01T05:15:21;4.60;;;3.73;;
2408;SDS011;8463;48.094;7.970;2023-08-01T05:17:47;5.60;;;3.33;;
2408;SDS011;8463;48.094;7.970;2023-08-01T05:20:14;4.33;;;3.47;;
2408;SDS011;8463;48.094;7.970;2023-08-01T05:22:40;8.20;;;3.80;;
2408;SDS011;8463;48.094;7.970;2023-08-01T05:25:06;7.33;;;3.47;;
2408;SDS011;8463;48.094;7.970;2023-08-01T05:27:34;6.40;;;4.10;;
2408;SDS011;8463;48.094;7.970;2023-08-01T05:30:02;4.10;;;3.30;;
2408;SDS011;8463;48.094;7.970;2023-08-01T05:32:28;5.33;;;3.50;;
2408;SDS011;8463;48.094;7.970;2023-08-01T05:34:54;3.73;;;3.43;;
2408;SDS011;8463;48.094;7.970;2023-08-01T05:37:19;4.10;;;2.90;;
2408;SDS011;8463;48.094;7.970;2023-08-01T05:39:45;8.67;;;4.13;;
2408;SDS011;8463;48.094;7.970;2023-08-01T05:42:10;3.83;;;3.53;;
2408;SDS011;8463;48.094;7.970;2023-08-01T05:44:36;6.60;;;4.17;;
2408;SDS011;8463;48.094;7.970;2023-08-01T05:47:02;5.50;;;3.03;;
2408;SDS011;8463;48.094;7.970;2023-08-01T05:49:27;4.57;;;4.07;;
2408;SDS011;8463;48.094;7.970;2023-08-01T05:51:56;5.37;;;3.97;;
2408;SDS011;8463;48.094;7.970;2023-08-01T05:54:24;4.63;;;3.03;;
2408;SDS011;8463;48.094;7.970;2023-08-01T05:56:49;5.10;;;4.20;;
2408;SDS011;8463;48.094;7.970;2023-08-01T05:59:15;6.70;;;3.13;;
2408;SDS011;8463;48.094;7.970;2023-08-01T06:01:41;5.27;;;3.40;;
2408;SDS011;8463;48.094;7.970;2023-08-01T06:04:07;7.47;;;3.27;;
2408;SDS011;8463;48.094;7.970;2023-08-01T06:06:32;5.20;;;3.70;;
2408;SDS011;8463;48.094;7.970;2023-08-01T06:08:58;5.77;;;3.77;;
2408;SDS011;8463;48.094;7.970;2023-08-01T06:11:24;4.70;;;4.07;;
2408;SDS011;8463;48.094;7.970;2023-08-01T06:13:51;3.80;;;2.80;;
2408;SDS011;8463;48.094;7.970;2023-08-01T06:16:23;4.80;;;2.67;;
2408;SDS011;8463;48.094;7.970;2023-08-01T06:18:48;5.53;;;3.57;;
2408;SDS011;8463;48.094;7.970;2023-08-01T06:21:14;4.70;;;3.70;;
2408;SDS011;8463;48.094;7.970;2023-08-01T06:23:39;5.60;;;3.37;;
2408;SDS011;8463;48.094;7.970;2023-08-01T06:26:05;7.23;;;4.00;;
2408;SDS011;8463;48.094;7.970;2023-08-01T06:28:31;3.50;;;3.13;;
2408;SDS011;8463;48.094;7.970;2023-08-01T06:30:59;4.30;;;3.90;;
2408;SDS011;8463;48.094;7.970;2023-08-01T06:33:27;4.10;;;3.50;;
2408;SDS011;8463;48.094;7.970;2023-08-01T06:35:55;4.63;;;3.43;;
2408;SDS011;8463;48.094;7.970;2023-08-01T06:38:21;6.93;;;3.57;;
2408;SDS011;8463;48.094;7.970;2023-08-01T06:40:46;5.47;;;4.00;;
2408;SDS011;8463;48.094;7.970;2023-08-01T06:43:13;4.20;;;3.53;;
2408;SDS011;8463;48.094;7.970;2023-08-01T06:45:38;4.97;;;3.20;;
2408;SDS011;8463;48.094;7.970;2023-08-01T06:48:04;4.00;;;3.20;;
2408;SDS011;8463;48.094;7.970;2023-08-01T06:50:32;6.23;;;4.13;;
2408;SDS011;8463;48.094;7.970;2023-08-01T06:52:57;4.13;;;3.50;;
2408;SDS011;8463;48.094;7.970;2023-08-01T06:55:26;7.90;;;3.30;;
2408;SDS011;8463;48.094;7.970;2023-08-01T06:57:52;6.10;;;3.30;;
2408;SDS011;8463;48.094;7.970;2023-08-01T07:00:20;4.23;;;3.13;;
2408;SDS011;8463;48.094;7.970;2023-08-01T07:02:47;3.50;;;2.80;;
2408;SDS011;8463;48.094;7.970;2023-08-01T07:05:13;2.90;;;2.43;;
2408;SDS011;8463;48.094;7.970;2023-08-01T07:07:38;2.63;;;2.33;;
2408;SDS011;8463;48.094;7.970;2023-08-01T07:10:04;2.50;;;2.13;;
2408;SDS011;8463;48.094;7.970;2023-08-01T07:12:33;3.47;;;2.80;;
2408;SDS011;8463;48.094;7.970;2023-08-01T07:14:59;3.60;;;2.97;;
2408;SDS011;8463;48.094;7.970;2023-08-01T07:17:24;3.63;;;2.27;;
2408;SDS011;8463;48.094;7.970;2023-08-01T07:19:55;3.10;;;2.50;;
2408;SDS011;8463;48.094;7.970;2023-08-01T07:22:21;3.50;;;3.20;;
2408;SDS011;8463;48.094;7.970;2023-08-01T07:24:46;3.57;;;3.27;;
2408;SDS011;8463;48.094;7.970;2023-08-01T07:27:12;3.60;;;2.40;;
2408;SDS011;8463;48.094;7.970;2023-08-01T07:29:38;4.17;;;2.90;;
2408;SDS011;8463;48.094;7.970;2023-08-01T07:32:03;2.97;;;2.27;;
2408;SDS011;8463;48.094;7.970;2023-08-01T07:34:31;5.80;;;2.80;;
2408;SDS011;8463;48.094;7.970;2023-08-01T07:36:57;4.33;;;2.67;;
2408;SDS011;8463;48.094;7.970;2023-08-01T07:39:22;4.63;;;3.20;;
2408;SDS011;8463;48.094;7.970;2023-08-01T07:41:48;4.23;;;2.80;;
2408;SDS011;8463;48.094;7.970;2023-08-01T07:44:13;2.57;;;2.20;;
2408;SDS011;8463;48.094;7.970;2023-08-01T07:46:39;3.10;;;2.43;;
2408;SDS011;8463;48.094;7.970;2023-08-01T07:49:05;3.53;;;2.83;;
2408;SDS011;8463;48.094;7.970;2023-08-01T07:51:30;3.90;;;2.20;;
2408;SDS011;8463;48.094;7.970;2023-08-01T07:53:56;3.23;;;2.00;;
2408;SDS011;8463;48.094;7.970;2023-08-01T07:56:24;5.00;;;2.50;;
2408;SDS011;8463;48.094;7.970;2023-08-01T07:58:50;2.37;;;2.17;;
2408;SDS011;8463;48.094;7.970;2023-08-01T08:01:16;2.40;;;1.90;;
2408;SDS011;8463;48.094;7.970;2023-08-01T08:03:41;4.07;;;2.60;;
2408;SDS011;8463;48.094;7.970;2023-08-01T08:06:07;3.90;;;2.97;;
2408;SDS011;8463;48.094;7.970;2023-08-01T08:08:38;3.37;;;1.97;;
2408;SDS011;8463;48.094;7.970;2023-08-01T08:11:04;2.80;;;1.93;;
2408;SDS011;8463;48.094;7.970;2023-08-01T08:13:30;4.80;;;1.70;;
2408;SDS011;8463;48.094;7.970;2023-08-01T08:16:04;2.57;;;2.10;;
2408;SDS011;8463;48.094;7.970;2023-08-01T08:18:30;2.50;;;1.97;;
2408;SDS011;8463;48.094;7.970;2023-08-01T08:20:59;2.90;;;1.90;;
2408;SDS011;8463;48.094;7.970;2023-08-01T08:23:25;2.87;;;2.03;;
2408;SDS011;8463;48.094;7.970;2023-08-01T08:25:51;3.73;;;1.90;;
2408;SDS011;8463;48.094;7.970;2023-08-01T08:28:27;2.40;;;1.90;;
2408;SDS011;8463;48.094;7.970;2023-08-01T08:30:54;4.00;;;1.80;;
2408;SDS011;8463;48.094;7.970;2023-08-01T08:33:20;3.23;;;1.93;;
2408;SDS011;8463;48.094;7.970;2023-08-01T08:35:46;2.10;;;1.90;;
2408;SDS011;8463;48.094;7.970;2023-08-01T08:38:18;2.40;;;1.50;;
2408;SDS011;8463;48.094;7.970;2023-08-01T08:43:35;2.27;;;1.87;;
2408;SDS011;8463;48.094;7.970;2023-08-01T08:46:04;2.60;;;1.80;;
2408;SDS011;8463;48.094;7.970;2023-08-01T08:48:30;2.60;;;1.40;;
2408;SDS011;8463;48.094;7.970;2023-08-01T08:50:57;2.07;;;1.33;;
2408;SDS011;8463;48.094;7.970;2023-08-01T08:53:25;3.10;;;1.63;;
2408;SDS011;8463;48.094;7.970;2023-08-01T08:55:51;2.63;;;2.10;;
2408;SDS011;8463;48.094;7.970;2023-08-01T08:58:17;2.03;;;1.93;;
2408;SDS011;8463;48.094;7.970;2023-08-01T09:00:46;2.17;;;1.97;;
2408;SDS011;8463;48.094;7.970;2023-08-01T09:03:12;2.27;;;1.73;;
2408;SDS011;8463;48.094;7.970;2023-08-01T09:05:45;1.90;;;1.63;;
2408;SDS011;8463;48.094;7.970;2023-08-01T09:08:18;2.87;;;1.87;;
2408;SDS011;8463;48.094;7.970;2023-08-01T09:10:46;2.20;;;2.00;;
2408;SDS011;8463;48.094;7.970;2023-08-01T09:13:22;2.67;;;2.37;;
2408;SDS011;8463;48.094;7.970;2023-08-01T09:15:50;2.87;;;2.10;;
2408;SDS011;8463;48.094;7.970;2023-08-01T09:18:17;3.10;;;2.20;;
2408;SDS011;8463;48.094;7.970;2023-08-01T09:20:44;2.47;;;2.00;;
2408;SDS011;8463;48.094;7.970;2023-08-01T09:23:14;2.03;;;1.83;;
2408;SDS011;8463;48.094;7.970;2023-08-01T09:25:46;3.00;;;1.67;;
2408;SDS011;8463;48.094;7.970;2023-08-01T09:28:15;1.87;;;1.53;;
2408;SDS011;8463;48.094;7.970;2023-08-01T09:30:46;1.97;;;1.40;;
2408;SDS011;8463;48.094;7.970;2023-08-01T09:33:20;2.80;;;1.87;;
2408;SDS011;8463;48.094;7.970;2023-08-01T09:35:49;3.07;;;2.43;;
2408;SDS011;8463;48.094;7.970;2023-08-01T09:38:15;2.17;;;1.90;;
2408;SDS011;8463;48.094;7.970;2023-08-01T09:40:41;1.93;;;1.73;;
2408;SDS011;8463;48.094;7.970;2023-08-01T09:43:09;6.20;;;2.30;;
2408;SDS011;8463;48.094;7.970;2023-08-01T09:45:37;2.37;;;2.00;;
2408;SDS011;8463;48.094;7.970;2023-08-01T09:48:02;2.30;;;1.77;;
2408;SDS011;8463;48.094;7.970;2023-08-01T09:50:28;3.20;;;2.23;;
2408;SDS011;8463;48.094;7.970;2023-08-01T09:52:54;1.87;;;1.50;;
2408;SDS011;8463;48.094;7.970;2023-08-01T09:55:32;2.47;;;2.00;;
2408;SDS011;8463;48.094;7.970;2023-08-01T09:57:59;2.30;;;2.10;;
2408;SDS011;8463;48.094;7.970;2023-08-01T10:00:32;3.37;;;2.17;;
2408;SDS011;8463;48.094;7.970;2023-08-01T10:02:59;2.53;;;1.70;;
2408;SDS011;8463;48.094;7.970;2023-08-01T10:05:32;1.70;;;1.50;;
2408;SDS011;8463;48.094;7.970;2023-08-01T10:08:04;2.17;;;1.97;;
2408;SDS011;8463;48.094;7.970;2023-08-01T10:10:31;2.07;;;1.67;;
2408;SDS011;8463;48.094;7.970;2023-08-01T10:12:57;2.10;;;1.90;;
2408;SDS011;8463;48.094;7.970;2023-08-01T10:15:31;4.93;;;2.30;;
2408;SDS011;8463;48.094;7.970;2023-08-01T10:17:57;1.93;;;1.70;;
2408;SDS011;8463;48.094;7.970;2023-08-01T10:20:23;3.33;;;1.93;;
2408;SDS011;8463;48.094;7.970;2023-08-01T10:22:56;1.63;;;1.50;;
2408;SDS011;8463;48.094;7.970;2023-08-01T10:25:24;3.23;;;1.83;;
2408;SDS011;8463;48.094;7.970;2023-08-01T10:28:01;2.53;;;1.70;;
2408;SDS011;8463;48.094;7.970;2023-08-01T10:30:28;2.43;;;1.90;;
2408;SDS011;8463;48.094;7.970;2023-08-01T10:32:57;2.20;;;1.83;;
2408;SDS011;8463;48.094;7.970;2023-08-01T10:35:40;2.50;;;1.77;;
2408;SDS011;8463;48.094;7.970;2023-08-01T10:38:11;2.60;;;2.00;;
2408;SDS011;8463;48.094;7.970;2023-08-01T10:40:41;2.13;;;1.73;;
2408;SDS011;8463;48.094;7.970;2023-08-01T10:43:23;2.40;;;2.20;;
2408;SDS011;8463;48.094;7.970;2023-08-01T10:46:01;2.10;;;1.63;;
2408;SDS011;8463;48.094;7.970;2023-08-01T10:48:27;2.90;;;1.87;;
2408;SDS011;8463;48.094;7.970;2023-08-01T10:50:54;2.30;;;1.70;;
2408;SDS011;8463;48.094;7.970;2023-08-01T10:53:24;2.90;;;1.77;;
2408;SDS011;8463;48.094;7.970;2023-08-01T10:55:55;5.97;;;2.13;;
2408;SDS011;8463;48.094;7.970;2023-08-01T11:01:23;1.50;;;1.40;;
2408;SDS011;8463;48.094;7.970;2023-08-01T11:03:51;3.20;;;1.90;;
2408;SDS011;8463;48.094;7.970;2023-08-01T11:06:23;2.00;;;1.60;;
2408;SDS011;8463;48.094;7.970;2023-08-01T11:08:51;2.07;;;1.70;;
2408;SDS011;8463;48.094;7.970;2023-08-01T11:11:16;2.47;;;1.80;;
2408;SDS011;8463;48.094;7.970;2023-08-01T11:13:57;2.40;;;1.63;;
2408;SDS011;8463;48.094;7.970;2023-08-01T11:16:27;2.30;;;1.73;;
2408;SDS011;8463;48.094;7.970;2023-08-01T11:18:55;1.97;;;1.67;;
2408;SDS011;8463;48.094;7.970;2023-08-01T11:21:25;2.03;;;1.50;;
2408;SDS011;8463;48.094;7.970;2023-08-01T11:23:52;2.30;;;1.77;;
2408;SDS011;8463;48.094;7.970;2023-08-01T11:26:18;2.00;;;1.73;;
2408;SDS011;8463;48.094;7.970;2023-08-01T11:28:44;2.80;;;1.80;;
2408;SDS011;8463;48.094;7.970;2023-08-01T11:31:10;1.70;;;1.60;;
2408;SDS011;8463;48.094;7.970;2023-08-01T11:33:42;2.67;;;1.40;;
2408;SDS011;8463;48.094;7.970;2023-08-01T11:53:06;1.57;;;1.00;;
2408;SDS011;8463;48.094;7.970;2023-08-01T11:55:31;1.00;;;0.70;;
2408;SDS011;8463;48.094;7.970;2023-08-01T11:58:01;1.00;;;0.90;;
2408;SDS011;8463;48.094;7.970;2023-08-01T12:00:27;1.37;;;0.93;;
2408;SDS011;8463;48.094;7.970;2023-08-01T12:03:07;1.10;;;0.63;;
2408;SDS011;8463;48.094;7.970;2023-08-01T12:05:38;0.97;;;0.87;;
2408;SDS011;8463;48.094;7.970;2023-08-01T12:08:10;1.33;;;0.90;;
2408;SDS011;8463;48.094;7.970;2023-08-01T12:10:40;0.80;;;0.80;;
2408;SDS011;8463;48.094;7.970;2023-08-01T12:13:18;0.80;;;0.60;;
2408;SDS011;8463;48.094;7.970;2023-08-01T12:15:46;0.80;;;0.77;;
2408;SDS011;8463;48.094;7.970;2023-08-01T12:18:19;1.00;;;0.90;;
2408;SDS011;8463;48.094;7.970;2023-08-01T12:20:49;0.70;;;0.60;;
2408;SDS011;8463;48.094;7.970;2023-08-01T12:23:17;1.80;;;0.90;;
2408;SDS011;8463;48.094;7.970;2023-08-01T12:25:44;2.93;;;0.93;;
2408;SDS011;8463;48.094;7.970;2023-08-01T12:28:10;1.20;;;0.80;;
2408;SDS011;8463;48.094;7.970;2023-08-01T12:30:38;3.73;;;0.80;;
2408;SDS011;8463;48.094;7.970;2023-08-01T12:33:04;0.80;;;0.80;;
2408;SDS011;8463;48.094;7.970;2023-08-01T12:35:30;0.60;;;0.50;;
2408;SDS011;8463;48.094;7.970;2023-08-01T12:37:55;0.77;;;0.70;;
2408;SDS011;8463;48.094;7.970;2023-08-01T12:40:21;1.77;;;0.80;;
2408;SDS011;8463;48.094;7.970;2023-08-01T12:42:47;1.00;;;0.90;;
2408;SDS011;8463;48.094;7.970;2023-08-01T12:45:12;1.03;;;0.83;;
2408;SDS011;8463;48.094;7.970;2023-08-01T12:47:38;0.60;;;0.60;;
2408;SDS011;8463;48.094;7.970;2023-08-01T12:50:04;2.20;;;1.00;;
2408;SDS011;8463;48.094;7.970;2023-08-01T12:52:30;1.17;;;0.80;;
2408;SDS011;8463;48.094;7.970;2023-08-01T12:54:56;0.80;;;0.63;;
2408;SDS011;8463;48.094;7.970;2023-08-01T12:57:21;1.77;;;0.90;;
2408;SDS011;8463;48.094;7.970;2023-08-01T12:59:48;0.80;;;0.70;;
2408;SDS011;8463;48.094;7.970;2023-08-01T13:02:14;0.90;;;0.70;;
2408;SDS011;8463;48.094;7.970;2023-08-01T13:04:39;0.93;;;0.83;;
2408;SDS011;8463;48.094;7.970;2023-08-01T13:07:05;1.20;;;1.07;;
2408;SDS011;8463;48.094;7.970;2023-08-01T13:09:31;0.80;;;0.70;;
2408;SDS011;8463;48.094;7.970;2023-08-01T13:11:56;0.90;;;0.70;;
2408;SDS011;8463;48.094;7.970;2023-08-01T13:14:25;1.13;;;1.00;;
2408;SDS011;8463;48.094;7.970;2023-08-01T13:16:51;0.63;;;0.57;;
2408;SDS011;8463;48.094;7.970;2023-08-01T13:19:17;1.97;;;1.07;;
2408;SDS011;8463;48.094;7.970;2023-08-01T13:21:43;0.70;;;0.70;;
2408;SDS011;8463;48.094;7.970;2023-08-01T13:24:09;1.10;;;0.90;;
2408;SDS011;8463;48.094;7.970;2023-08-01T13:26:35;0.90;;;0.60;;
2408;SDS011;8463;48.094;7.970;2023-08-01T13:29:01;0.90;;;0.73;;
2408;SDS011;8463;48.094;7.970;2023-08-01T13:31:27;1.57;;;0.90;;
2408;SDS011;8463;48.094;7.970;2023-08-01T13:33:53;0.80;;;0.60;;
2408;SDS011;8463;48.094;7.970;2023-08-01T13:36:23;1.13;;;0.50;;
2408;SDS011;8463;48.094;7.970;2023-08-01T13:38:51;1.00;;;0.90;;
2408;SDS011;8463;48.094;7.970;2023-08-01T13:41:17;2.23;;;1.40;;
2408;SDS011;8463;48.094;7.970;2023-08-01T13:43:43;0.67;;;0.67;;
2408;SDS011;8463;48.094;7.970;2023-08-01T13:46:12;1.53;;;1.00;;
2408;SDS011;8463;48.094;7.970;2023-08-01T13:48:40;6.43;;;2.53;;
2408;SDS011;8463;48.094;7.970;2023-08-01T13:51:06;0.87;;;0.70;;
2408;SDS011;8463;48.094;7.970;2023-08-01T13:53:31;0.87;;;0.73;;
2408;SDS011;8463;48.094;7.970;2023-08-01T13:55:58;1.50;;;0.90;;
2408;SDS011;8463;48.094;7.970;2023-08-01T13:58:24;1.00;;;0.90;;
2408;SDS011;8463;48.094;7.970;2023-08-01T14:00:50;1.13;;;1.00;;
2408;SDS011;8463;48.094;7.970;2023-08-01T14:03:15;1.93;;;1.00;;
2408;SDS011;8463;48.094;7.970;2023-08-01T14:05:43;1.77;;;1.13;;
2408;SDS011;8463;48.094;7.970;2023-08-01T14:08:09;0.97;;;0.83;;
2408;SDS011;8463;48.094;7.970;2023-08-01T14:10:35;1.37;;;0.70;;
2408;SDS011;8463;48.094;7.970;2023-08-01T14:13:00;0.73;;;0.67;;
2408;SDS011;8463;48.094;7.970;2023-08-01T14:15:26;1.20;;;1.10;;
2408;SDS011;8463;48.094;7.970;2023-08-01T14:17:51;3.17;;;0.87;;
2408;SDS011;8463;48.094;7.970;2023-08-01T14:20:18;1.20;;;1.00;;
2408;SDS011;8463;48.094;7.970;2023-08-01T14:22:46;1.67;;;0.90;;
2408;SDS011;8463;48.094;7.970;2023-08-01T14:25:12;2.00;;;0.90;;
2408;SDS011;8463;48.094;7.970;2023-08-01T14:27:37;0.77;;;0.77;;
2408;SDS011;8463;48.094;7.970;2023-08-01T14:30:03;1.10;;;0.80;;
2408;SDS011;8463;48.094;7.970;2023-08-01T14:32:30;1.17;;;0.90;;
2408;SDS011;8463;48.094;7.970;2023-08-01T14:34:56;3.80;;;1.07;;
2408;SDS011;8463;48.094;7.970;2023-08-01T14:37:21;1.37;;;1.23;;
2408;SDS011;8463;48.094;7.970;2023-08-01T14:39:49;0.70;;;0.60;;
2408;SDS011;8463;48.094;7.970;2023-08-01T14:42:15;1.60;;;1.30;;
2408;SDS011;8463;48.094;7.970;2023-08-01T14:44:41;0.93;;;0.90;;
2408;SDS011;8463;48.094;7.970;2023-08-01T14:47:07;0.70;;;0.60;;
2408;SDS011;8463;48.094;7.970;2023-08-01T14:49:32;1.17;;;0.90;;
2408;SDS011;8463;48.094;7.970;2023-08-01T14:51:58;0.77;;;0.70;;
2408;SDS011;8463;48.094;7.970;2023-08-01T14:54:24;1.97;;;0.70;;
2408;SDS011;8463;48.094;7.970;2023-08-01T14:56:51;1.33;;;0.87;;
2408;SDS011;8463;48.094;7.970;2023-08-01T14:59:17;0.83;;;0.83;;
2408;SDS011;8463;48.094;7.970;2023-08-01T15:01:42;1.10;;;0.90;;
2408;SDS011;8463;48.094;7.970;2023-08-01T15:04:08;1.87;;;1.10;;
2408;SDS011;8463;48.094;7.970;2023-08-01T15:06:36;1.03;;;0.93;;
2408;SDS011;8463;48.094;7.970;2023-08-01T15:09:01;1.00;;;0.90;;
2408;SDS011;8463;48.094;7.970;2023-08-01T15:11:27;1.00;;;0.90;;
2408;SDS011;8463;48.094;7.970;2023-08-01T15:13:53;1.10;;;0.97;;
2408;SDS011;8463;48.094;7.970;2023-08-01T15:16:18;1.40;;;1.20;;
2408;SDS011;8463;48.094;7.970;2023-08-01T15:18:44;1.00;;;0.90;;
2408;SDS011;8463;48.094;7.970;2023-08-01T15:21:09;1.40;;;1.30;;
2408;SDS011;8463;48.094;7.970;2023-08-01T15:23:35;1.77;;;1.00;;
2408;SDS011;8463;48.094;7.970;2023-08-01T15:26:03;1.30;;;0.90;;
2408;SDS011;8463;48.094;7.970;2023-08-01T15:28:28;1.40;;;1.30;;
2408;SDS011;8463;48.094;7.970;2023-08-01T15:31:01;0.80;;;0.80;;
2408;SDS011;8463;48.094;7.970;2023-08-01T15:33:31;1.53;;;1.03;;
2408;SDS011;8463;48.094;7.970;2023-08-01T15:36:01;1.57;;;1.30;;
2408;SDS011;8463;48.094;7.970;2023-08-01T15:38:29;2.30;;;1.10;;
2408;SDS011;8463;48.094;7.970;2023-08-01T15:40:56;1.10;;;1.00;;